LFBU/ANG METAR and TAF weather

Enter ICAO airport designator
Station Type Date Time Source
LFBU METAR 2018/12/13 21:00 UTC NOAA

LFBU 132100Z AUTO 03007KT 6000 NSC 02/00 Q1011 NOSIG


Station Type Date Time Source
LFBU Decoded METAR 2018/12/13 21:00 UTC NOAA

Station name not available
Dec 13, 2018 - 04:00 PM EST / 2018.12.13 2100 UTC
Wind: from the NNE (030 degrees) at 8 MPH (7 KT):0
Visibility: 3 mile(s):0
Temperature: 35 F (2 C)
Windchill: 28 F (-2 C):1
Dew Point: 32 F (0 C)
Relative Humidity: 86%
Pressure (altimeter): 29.85 in. Hg (1011 hPa)
ob: LFBU 132100Z AUTO 03007KT 6000 NSC 02/00 Q1011 NOSIG
cycle: 21

Station Type Date Time Source
LFBU TAF 2018/12/13 21:00 UTC NOAA

TAF
AMD LFBU 132115Z 1321/1418 CNL


Example: see airport list